createdAt,value
2022-11-23T00:00:48.397Z,97428.69
2022-11-23T00:03:16.813Z,97431.78
2022-11-23T00:05:45.398Z,97435.81
2022-11-23T00:08:13.223Z,97434.84
2022-11-23T00:10:41.029Z,97444.09
2022-11-23T00:13:08.895Z,97444.91
2022-11-23T00:15:36.641Z,97438.09
2022-11-23T00:18:05.778Z,97434.13
2022-11-23T00:20:33.602Z,97427.47
2022-11-23T00:23:01.309Z,97428.00
2022-11-23T00:25:29.525Z,97428.09
2022-11-23T00:27:57.343Z,97425.06
2022-11-23T00:30:25.098Z,97427.38
2022-11-23T00:32:53.600Z,97424.03
2022-11-23T00:35:23.046Z,97419.34
2022-11-23T00:37:50.989Z,97426.84
2022-11-23T00:40:18.864Z,97422.28
2022-11-23T00:42:46.587Z,97432.00
2022-11-23T00:45:14.306Z,97410.91
2022-11-23T00:47:42.008Z,97415.63
2022-11-23T00:50:10.605Z,97422.00
2022-11-23T00:52:39.691Z,97419.59
2022-11-23T00:55:08.549Z,97414.72
2022-11-23T00:57:36.383Z,97414.53
2022-11-23T01:00:05.507Z,97414.53
2022-11-23T01:02:36.045Z,97415.38
2022-11-23T01:05:04.059Z,97416.06
2022-11-23T01:07:31.995Z,97416.06
2022-11-23T01:10:01.156Z,97403.84
2022-11-23T01:12:30.005Z,97417.91
2022-11-23T01:14:57.714Z,97418.78
2022-11-23T01:17:25.504Z,97417.94
2022-11-23T01:19:53.196Z,97415.28
2022-11-23T01:22:21.238Z,97414.66
2022-11-23T01:24:50.738Z,97416.00
2022-11-23T01:27:19.947Z,97425.00
2022-11-23T01:29:47.801Z,97427.38
2022-11-23T01:32:15.521Z,97423.03
2022-11-23T01:34:43.319Z,97426.28
2022-11-23T01:37:11.953Z,97416.78
2022-11-23T01:39:39.772Z,97423.34
2022-11-23T01:42:08.618Z,97421.19
2022-11-23T01:44:39.229Z,97432.00
2022-11-23T01:47:09.012Z,97425.28
2022-11-23T01:49:40.596Z,97426.66
2022-11-23T01:52:13.644Z,97425.19
2022-11-23T01:54:45.900Z,97439.94
2022-11-23T01:57:18.800Z,97441.88
2022-11-23T01:59:49.845Z,97446.91
2022-11-23T02:02:18.389Z,97449.69
2022-11-23T02:04:51.582Z,97454.28
2022-11-23T02:07:20.430Z,97453.63
2022-11-23T02:09:48.675Z,97449.50
2022-11-23T02:12:17.070Z,97454.78
2022-11-23T02:14:45.829Z,97456.13
2022-11-23T02:17:15.031Z,97461.16
2022-11-23T02:19:55.358Z,97463.88
2022-11-23T02:22:30.423Z,97470.13
2022-11-23T02:25:00.373Z,97462.41
2022-11-23T02:27:30.023Z,97466.84
2022-11-23T02:30:01.149Z,97464.44
2022-11-23T02:32:30.045Z,97464.66
2022-11-23T02:34:57.760Z,97452.28
2022-11-23T02:37:26.103Z,97467.09
2022-11-23T02:39:55.371Z,97460.78
2022-11-23T02:42:24.488Z,97458.41
2022-11-23T02:45:00.293Z,97463.34
2022-11-23T02:47:28.049Z,97464.78
2022-11-23T02:49:58.616Z,97464.25
2022-11-23T02:52:26.573Z,97460.25
2022-11-23T02:54:54.317Z,97461.78
2022-11-23T02:57:22.174Z,97459.66
2022-11-23T02:59:50.125Z,97463.53
2022-11-23T03:02:19.537Z,97464.75
2022-11-23T03:04:47.935Z,97466.69
2022-11-23T03:07:19.223Z,97454.69
2022-11-23T03:09:48.871Z,97467.34
2022-11-23T03:12:17.055Z,97462.59
2022-11-23T03:14:44.842Z,97464.00
2022-11-23T03:17:13.302Z,97471.25
2022-11-23T03:19:45.734Z,97469.03
2022-11-23T03:22:14.504Z,97476.03
2022-11-23T03:24:42.173Z,97476.63
2022-11-23T03:27:14.351Z,97465.53
2022-11-23T03:29:42.876Z,97466.75
2022-11-23T03:32:16.798Z,97464.09
2022-11-23T03:34:49.236Z,97467.13
2022-11-23T03:37:18.877Z,97476.09
2022-11-23T03:39:47.630Z,97472.19
2022-11-23T03:42:24.630Z,97472.97
2022-11-23T03:44:52.637Z,97469.47
2022-11-23T03:47:20.440Z,97480.56
2022-11-23T03:49:49.681Z,97472.38
2022-11-23T03:52:17.580Z,97473.34
2022-11-23T03:54:47.067Z,97467.97
2022-11-23T03:57:15.549Z,97460.28
2022-11-23T03:59:43.553Z,97459.72
2022-11-23T04:02:12.184Z,97451.50
2022-11-23T04:04:48.752Z,97453.31
2022-11-23T04:07:47.544Z,97460.19
2022-11-23T04:10:15.909Z,97454.03
2022-11-23T04:13:02.627Z,97448.19
2022-11-23T04:15:31.222Z,97448.59
2022-11-23T04:17:59.498Z,97451.50
2022-11-23T04:20:28.742Z,97441.03
2022-11-23T04:22:56.526Z,97442.09
2022-11-23T04:25:26.497Z,97440.66
2022-11-23T04:27:55.896Z,97448.53
2022-11-23T04:30:24.698Z,97440.91
2022-11-23T04:32:54.627Z,97446.69
2022-11-23T04:35:23.361Z,97448.75
2022-11-23T04:37:53.817Z,97446.09
2022-11-23T04:40:25.163Z,97448.75
2022-11-23T04:43:04.258Z,97442.09
2022-11-23T04:45:39.445Z,97445.22
2022-11-23T04:48:10.740Z,97448.03
2022-11-23T04:50:40.661Z,97443.88
2022-11-23T04:53:11.685Z,97444.94
2022-11-23T04:55:45.366Z,97436.53
2022-11-23T04:58:13.090Z,97442.56
2022-11-23T05:00:41.127Z,97438.44
2022-11-23T05:03:10.392Z,97435.97
2022-11-23T05:05:41.752Z,97449.19
2022-11-23T05:08:11.346Z,97445.16
2022-11-23T05:10:50.439Z,97445.69
2022-11-23T05:13:18.259Z,97455.16
2022-11-23T05:15:47.259Z,97450.25
2022-11-23T05:18:19.365Z,97451.34
2022-11-23T05:20:47.464Z,97452.19
2022-11-23T05:23:18.175Z,97448.41
2022-11-23T05:25:47.595Z,97439.94
2022-11-23T05:28:44.906Z,97437.38
2022-11-23T05:31:08.688Z,97441.38
2022-11-23T05:33:36.707Z,97439.63
2022-11-23T05:36:06.436Z,97441.50
2022-11-23T05:38:39.592Z,97441.38
2022-11-23T05:41:13.337Z,97436.06
2022-11-23T05:43:43.801Z,97431.34
2022-11-23T05:46:16.214Z,97424.81
2022-11-23T05:48:44.436Z,97421.69
2022-11-23T05:51:12.277Z,97426.06
2022-11-23T05:53:46.604Z,97433.00
2022-11-23T05:56:20.153Z,97427.72
2022-11-23T05:59:05.352Z,97433.94
2022-11-23T06:01:35.963Z,97427.63
2022-11-23T06:04:06.793Z,97434.59
2022-11-23T06:06:39.967Z,97422.41
2022-11-23T06:09:09.039Z,97427.34
2022-11-23T06:11:39.373Z,97427.72
2022-11-23T06:14:14.489Z,97431.22
2022-11-23T06:16:45.076Z,97424.84
2022-11-23T06:19:30.301Z,97427.84
2022-11-23T06:21:59.022Z,97428.84
2022-11-23T06:24:31.594Z,97428.44
2022-11-23T06:27:19.226Z,97427.09
2022-11-23T06:29:49.233Z,97427.34
2022-11-23T06:32:17.528Z,97437.66
2022-11-23T06:34:45.355Z,97441.63
2022-11-23T06:37:14.126Z,97428.16
2022-11-23T06:39:43.756Z,97442.31
2022-11-23T06:42:40.492Z,97430.91
2022-11-23T06:45:00.323Z,97431.28
2022-11-23T06:47:29.190Z,97440.72
2022-11-23T06:49:58.390Z,97432.81
2022-11-23T06:52:29.187Z,97433.22
2022-11-23T06:54:58.497Z,97442.03
2022-11-23T06:57:26.776Z,97434.19
2022-11-23T06:59:55.939Z,97440.84
2022-11-23T07:02:30.329Z,97443.19
2022-11-23T07:04:59.354Z,97435.97
2022-11-23T07:07:28.859Z,97442.72
2022-11-23T07:10:08.154Z,97443.13
2022-11-23T07:12:47.533Z,97441.13
2022-11-23T07:15:18.450Z,97454.59
2022-11-23T07:17:46.824Z,97450.81
2022-11-23T07:20:15.671Z,97443.31
2022-11-23T07:22:44.615Z,97449.69
2022-11-23T07:25:16.766Z,97450.97
2022-11-23T07:27:44.799Z,97450.38
2022-11-23T07:30:13.647Z,97451.22
2022-11-23T07:32:41.361Z,97454.22
2022-11-23T07:35:12.584Z,97465.47
2022-11-23T07:37:43.063Z,97464.38
2022-11-23T07:40:11.400Z,97458.50
2022-11-23T07:42:44.909Z,97467.66
2022-11-23T07:45:13.820Z,97460.66
2022-11-23T07:47:45.878Z,97469.44
2022-11-23T07:50:14.777Z,97465.88
2022-11-23T07:52:42.537Z,97474.50
2022-11-23T07:55:10.785Z,97474.28
2022-11-23T07:57:38.657Z,97472.41
2022-11-23T08:00:09.778Z,97476.59
2022-11-23T08:02:57.863Z,97477.69
2022-11-23T08:05:28.750Z,97473.38
2022-11-23T08:07:59.495Z,97467.13
2022-11-23T08:10:27.674Z,97469.34
2022-11-23T08:12:58.351Z,97473.53
2022-11-23T08:15:29.151Z,97470.78
2022-11-23T08:17:57.422Z,97469.03
2022-11-23T08:20:25.690Z,97472.09
2022-11-23T08:22:55.774Z,97466.72
2022-11-23T08:25:23.960Z,97466.50
2022-11-23T08:27:55.993Z,97464.81
2022-11-23T08:30:23.979Z,97468.69
2022-11-23T08:32:53.064Z,97471.84
2022-11-23T08:35:20.938Z,97477.75
2022-11-23T08:37:48.845Z,97468.31
2022-11-23T08:40:22.091Z,97477.75
2022-11-23T08:42:52.695Z,97474.81
2022-11-23T08:45:20.475Z,97477.53
2022-11-23T08:47:48.222Z,97469.19
2022-11-23T08:50:17.561Z,97470.72
2022-11-23T08:52:45.361Z,97477.75
2022-11-23T08:55:13.498Z,97465.78
2022-11-23T08:57:41.167Z,97465.41
2022-11-23T09:00:10.302Z,97470.59
2022-11-23T09:02:38.097Z,97481.53
2022-11-23T09:05:07.576Z,97480.53
2022-11-23T09:07:36.735Z,97480.41
2022-11-23T09:10:05.159Z,97476.09
2022-11-23T09:12:33.915Z,97477.66
2022-11-23T09:15:01.673Z,97467.84
2022-11-23T09:17:31.716Z,97474.88
2022-11-23T09:19:59.745Z,97474.25
2022-11-23T09:22:27.937Z,97476.19
2022-11-23T09:24:57.003Z,97477.78
2022-11-23T09:27:24.866Z,97469.88
2022-11-23T09:29:52.652Z,97478.00
2022-11-23T09:32:20.553Z,97472.19
2022-11-23T09:34:48.428Z,97467.09
2022-11-23T09:37:16.238Z,97467.03
2022-11-23T09:39:44.778Z,97463.16
2022-11-23T09:42:42.089Z,97476.91
2022-11-23T09:45:19.855Z,97476.47
2022-11-23T09:48:09.709Z,97474.63
2022-11-23T09:50:47.298Z,97465.16
2022-11-23T09:53:19.252Z,97470.94
2022-11-23T09:55:49.553Z,97471.38
2022-11-23T09:58:22.731Z,97456.41
2022-11-23T10:01:00.891Z,97457.91
2022-11-23T10:03:30.225Z,97454.91
2022-11-23T10:06:04.181Z,97447.81
2022-11-23T10:08:38.903Z,97444.81
2022-11-23T10:11:24.041Z,97444.28
2022-11-23T10:14:01.935Z,97444.34
2022-11-23T10:16:39.640Z,97436.41
2022-11-23T10:19:19.270Z,97435.97
2022-11-23T10:21:55.514Z,97440.28
2022-11-23T10:24:30.985Z,97430.50
2022-11-23T10:26:59.636Z,97437.97
2022-11-23T10:29:32.181Z,97440.16
2022-11-23T10:32:00.797Z,97439.84
2022-11-23T10:34:48.154Z,97432.16
2022-11-23T10:37:18.177Z,97437.94
2022-11-23T10:39:45.949Z,97434.78
2022-11-23T10:42:22.257Z,97428.84
2022-11-23T10:44:52.883Z,97430.72
2022-11-23T10:47:44.377Z,97441.09
2022-11-23T10:50:27.580Z,97434.56
2022-11-23T10:52:57.751Z,97429.38
2022-11-23T10:55:29.058Z,97430.50
2022-11-23T10:57:57.586Z,97426.53
2022-11-23T11:00:30.899Z,97426.25
2022-11-23T11:03:00.539Z,97424.91
2022-11-23T11:06:07.032Z,97415.81
2022-11-23T11:08:21.136Z,97413.19
2022-11-23T11:10:51.039Z,97413.16
2022-11-23T11:13:23.810Z,97422.03
2022-11-23T11:15:58.648Z,97411.03
2022-11-23T11:18:29.887Z,97408.06
2022-11-23T11:21:00.022Z,97409.56
2022-11-23T11:23:31.048Z,97406.59
2022-11-23T11:26:14.558Z,97407.88
2022-11-23T11:28:43.722Z,97410.84
2022-11-23T11:31:31.214Z,97405.81
2022-11-23T11:34:07.007Z,97403.25
2022-11-23T11:36:41.809Z,97400.56
2022-11-23T11:39:19.103Z,97402.22
2022-11-23T11:41:50.279Z,97399.78
2022-11-23T11:44:22.569Z,97395.56
2022-11-23T11:46:57.315Z,97392.00
2022-11-23T11:49:29.713Z,97389.97
2022-11-23T11:52:03.339Z,97383.75
2022-11-23T11:54:42.229Z,97384.50
2022-11-23T11:57:20.252Z,97366.91
2022-11-23T11:59:50.115Z,97373.41
2022-11-23T12:02:24.729Z,97369.44
2022-11-23T12:05:01.288Z,97358.41
2022-11-23T12:07:32.749Z,97353.34
2022-11-23T12:10:07.791Z,97352.94
2022-11-23T12:12:37.720Z,97342.75
2022-11-23T12:15:20.472Z,97345.97
2022-11-23T12:18:17.024Z,97339.25
2022-11-23T12:20:55.830Z,97340.25
2022-11-23T12:23:35.218Z,97334.69
2022-11-23T12:26:18.162Z,97336.66
2022-11-23T12:29:00.669Z,97336.16
2022-11-23T12:31:41.836Z,97336.75
2022-11-23T12:34:25.338Z,97348.28
2022-11-23T12:37:09.459Z,97347.00
2022-11-23T12:40:10.444Z,97336.66
2022-11-23T12:42:43.742Z,97332.16
2022-11-23T12:45:46.252Z,97331.47
2022-11-23T12:48:27.062Z,97324.78
2022-11-23T12:51:08.144Z,97323.75
2022-11-23T12:53:48.817Z,97335.94
2022-11-23T12:56:27.382Z,97339.13
2022-11-23T12:58:57.457Z,97331.41
2022-11-23T13:01:32.280Z,97332.34
2022-11-23T13:04:40.515Z,97341.34
2022-11-23T13:07:44.855Z,97332.41
2022-11-23T13:10:25.899Z,97335.19
2022-11-23T13:13:21.690Z,97329.81
2022-11-23T13:16:11.992Z,97325.38
2022-11-23T13:18:54.460Z,97325.31
2022-11-23T13:21:31.177Z,97305.50
2022-11-23T13:24:00.782Z,97314.78
2022-11-23T13:26:31.197Z,97303.75
2022-11-23T13:29:01.344Z,97305.88
2022-11-23T13:31:31.127Z,97309.34
2022-11-23T13:34:01.087Z,97302.63
2022-11-23T13:37:10.516Z,97299.09
2022-11-23T13:40:05.122Z,97299.13
2022-11-23T13:42:35.942Z,97294.91
2022-11-23T13:45:26.135Z,97284.66
2022-11-23T13:48:34.286Z,97288.59
2022-11-23T13:51:03.178Z,97284.16
2022-11-23T13:53:34.713Z,97282.81
2022-11-23T13:56:31.771Z,97278.91
2022-11-23T13:59:28.011Z,97273.78
2022-11-23T14:02:23.304Z,97270.22
2022-11-23T14:04:51.505Z,97275.97
2022-11-23T14:07:23.664Z,97278.66
2022-11-23T14:09:53.955Z,97267.19
2022-11-23T14:12:32.917Z,97262.78
2022-11-23T14:15:09.330Z,97267.78
2022-11-23T14:18:06.610Z,97266.06
2022-11-23T14:21:03.032Z,97265.16
2022-11-23T14:23:47.836Z,97263.94
2022-11-23T14:26:34.146Z,97260.97
2022-11-23T14:29:20.412Z,97253.22
2022-11-23T14:32:01.663Z,97250.53
2022-11-23T14:34:37.211Z,97259.78
2022-11-23T14:37:14.619Z,97254.31
2022-11-23T14:39:56.865Z,97250.91
2022-11-23T14:42:27.993Z,97239.38
2022-11-23T14:44:59.030Z,97239.06
2022-11-23T14:47:29.922Z,97238.75
2022-11-23T14:50:00.796Z,97231.44
2022-11-23T14:52:30.451Z,97238.53
2022-11-23T14:55:01.156Z,97221.00
2022-11-23T14:57:37.222Z,97222.59
2022-11-23T15:00:11.485Z,97228.88
2022-11-23T15:02:44.027Z,97215.50
2022-11-23T15:05:20.870Z,97225.75
2022-11-23T15:07:54.566Z,97227.59
2022-11-23T15:10:34.669Z,97222.47
2022-11-23T15:13:02.375Z,97235.78
2022-11-23T15:15:33.044Z,97229.44
2022-11-23T15:18:04.149Z,97230.19
2022-11-23T15:20:34.420Z,97235.78
2022-11-23T15:23:02.478Z,97235.72
2022-11-23T15:25:30.660Z,97234.16
2022-11-23T15:27:58.483Z,97232.63
2022-11-23T15:30:29.306Z,97237.34
2022-11-23T15:32:59.231Z,97234.22
2022-11-23T15:35:33.921Z,97233.25
2022-11-23T15:38:03.245Z,97238.88
2022-11-23T15:40:34.358Z,97239.22
2022-11-23T15:43:02.277Z,97240.03
2022-11-23T15:45:38.907Z,97241.25
2022-11-23T15:48:13.017Z,97235.69
2022-11-23T15:50:49.521Z,97239.19
2022-11-23T15:53:17.483Z,97239.53
2022-11-23T15:55:46.055Z,97241.56
2022-11-23T15:58:17.892Z,97247.50
2022-11-23T16:00:51.571Z,97249.00
2022-11-23T16:03:29.886Z,97254.47
2022-11-23T16:06:20.894Z,97257.31
2022-11-23T16:08:51.330Z,97261.63
2022-11-23T16:11:34.164Z,97267.13
2022-11-23T16:14:20.770Z,97273.03
2022-11-23T16:16:59.407Z,97274.22
2022-11-23T16:19:30.485Z,97282.09
2022-11-23T16:22:03.255Z,97282.84
2022-11-23T16:24:33.939Z,97278.19
2022-11-23T16:27:02.603Z,97280.56
2022-11-23T16:29:36.752Z,97285.66
2022-11-23T16:32:07.027Z,97293.81
2022-11-23T16:34:35.202Z,97298.59
2022-11-23T16:37:04.896Z,97310.00
2022-11-23T16:39:32.778Z,97325.84
2022-11-23T16:42:00.528Z,97321.41
2022-11-23T16:44:30.704Z,97332.59
2022-11-23T16:47:19.654Z,97324.75
2022-11-23T16:49:47.466Z,97333.75
2022-11-23T16:52:16.748Z,97338.44
2022-11-23T16:54:44.460Z,97351.13
2022-11-23T16:57:19.445Z,97349.69
2022-11-23T16:59:47.511Z,97353.22
2022-11-23T17:02:17.226Z,97352.28
2022-11-23T17:04:45.492Z,97362.16
2022-11-23T17:07:13.484Z,97369.25
2022-11-23T17:09:42.705Z,97366.31
2022-11-23T17:12:16.687Z,97375.06
2022-11-23T17:14:47.492Z,97386.44
2022-11-23T17:17:20.633Z,97398.88
2022-11-23T17:19:49.686Z,97399.03
2022-11-23T17:22:18.723Z,97410.41
2022-11-23T17:24:49.036Z,97407.22
2022-11-23T17:27:21.005Z,97416.34
2022-11-23T17:29:51.918Z,97418.88
2022-11-23T17:32:19.910Z,97414.19
2022-11-23T17:34:47.698Z,97416.91
2022-11-23T17:37:20.164Z,97422.81
2022-11-23T17:39:50.172Z,97429.34
2022-11-23T17:42:18.853Z,97433.97
2022-11-23T17:44:46.565Z,97472.59
2022-11-23T17:47:24.957Z,97459.41
2022-11-23T17:49:52.868Z,97457.25
2022-11-23T17:52:20.724Z,97457.00
2022-11-23T17:54:49.890Z,97463.59
2022-11-23T17:57:20.029Z,97469.03
2022-11-23T17:59:47.916Z,97464.59
2022-11-23T18:02:15.773Z,97465.28
2022-11-23T18:04:43.757Z,97479.78
2022-11-23T18:07:14.670Z,97477.72
2022-11-23T18:09:43.152Z,97487.66
2022-11-23T18:12:12.259Z,97476.03
2022-11-23T18:14:40.063Z,97481.94
2022-11-23T18:17:07.767Z,97479.44
2022-11-23T18:19:35.677Z,97484.44
2022-11-23T18:22:03.474Z,97478.16
2022-11-23T18:24:31.208Z,97485.31
2022-11-23T18:26:58.950Z,97495.56
2022-11-23T18:29:28.037Z,97497.78
2022-11-23T18:31:55.809Z,97500.00
2022-11-23T18:34:23.788Z,97502.13
2022-11-23T18:36:51.551Z,97516.66
2022-11-23T18:39:19.231Z,97519.94
2022-11-23T18:41:50.041Z,97522.13
2022-11-23T18:44:17.882Z,97526.75
2022-11-23T18:46:47.057Z,97529.63
2022-11-23T18:49:14.947Z,97537.94
2022-11-23T18:51:42.662Z,97538.50
2022-11-23T18:54:10.427Z,97533.94
2022-11-23T18:56:38.171Z,97544.63
2022-11-23T18:59:07.996Z,97538.88
2022-11-23T19:01:35.789Z,97537.56
2022-11-23T19:04:04.989Z,97539.84
2022-11-23T19:06:33.627Z,97541.94
2022-11-23T19:09:02.933Z,97543.38
2022-11-23T19:11:30.819Z,97550.16
2022-11-23T19:14:03.240Z,97550.69
2022-11-23T19:16:33.056Z,97545.25
2022-11-23T19:19:02.815Z,97560.38
2022-11-23T19:21:36.576Z,97560.88
2022-11-23T19:24:04.977Z,97572.34
2022-11-23T19:26:33.032Z,97584.63
2022-11-23T19:29:00.913Z,97574.25
2022-11-23T19:31:30.653Z,97586.97
2022-11-23T19:34:00.849Z,97600.91
2022-11-23T19:36:30.153Z,97598.41
2022-11-23T19:39:00.470Z,97608.50
2022-11-23T19:41:30.780Z,97612.06
2022-11-23T19:44:00.308Z,97616.59
2022-11-23T19:46:28.827Z,97615.00
2022-11-23T19:48:57.999Z,97636.84
2022-11-23T19:51:27.188Z,97628.69
2022-11-23T19:53:57.052Z,97637.75
2022-11-23T19:56:29.059Z,97645.66
2022-11-23T19:58:58.922Z,97653.00
2022-11-23T20:01:28.630Z,97656.38
2022-11-23T20:03:57.793Z,97664.28
2022-11-23T20:06:27.261Z,97665.66
2022-11-23T20:08:56.219Z,97670.38
2022-11-23T20:11:24.722Z,97684.81
2022-11-23T20:13:54.919Z,97699.69
2022-11-23T20:16:23.679Z,97708.56
2022-11-23T20:18:57.051Z,97724.16
2022-11-23T20:21:24.842Z,97725.53
2022-11-23T20:24:01.345Z,97734.63
2022-11-23T20:26:32.396Z,97738.47
2022-11-23T20:29:01.565Z,97750.47
2022-11-23T20:31:31.627Z,97757.63
2022-11-23T20:33:59.994Z,97769.38
2022-11-23T20:36:30.315Z,97760.75
2022-11-23T20:38:58.879Z,97775.50
2022-11-23T20:41:28.702Z,97782.56
2022-11-23T20:43:58.173Z,97783.09
2022-11-23T20:47:00.110Z,97792.31
2022-11-23T20:49:17.984Z,97789.84
2022-11-23T20:51:46.027Z,97798.28
2022-11-23T20:54:13.908Z,97807.84
2022-11-23T20:56:41.672Z,97829.78
2022-11-23T20:59:09.437Z,97826.59
2022-11-23T21:01:40.553Z,97826.03
2022-11-23T21:04:09.408Z,97829.94
2022-11-23T21:06:39.846Z,97827.97
2022-11-23T21:09:09.066Z,97838.38
2022-11-23T21:11:54.908Z,97838.88
2022-11-23T21:14:24.648Z,97838.66
2022-11-23T21:16:55.977Z,97834.09
2022-11-23T21:19:25.324Z,97848.81
2022-11-23T21:21:53.458Z,97852.41
2022-11-23T21:24:21.884Z,97848.44
2022-11-23T21:26:50.228Z,97851.81
2022-11-23T21:29:19.141Z,97865.78
2022-11-23T21:31:49.006Z,97861.69
2022-11-23T21:34:20.821Z,97883.16
2022-11-23T21:36:49.154Z,97887.72
2022-11-23T21:39:17.987Z,97888.25
2022-11-23T21:41:46.152Z,97884.06
2022-11-23T21:44:14.076Z,97890.09
2022-11-23T21:46:42.496Z,97892.41
2022-11-23T21:49:11.528Z,97890.41
2022-11-23T21:51:42.514Z,97890.53
2022-11-23T21:54:14.070Z,97900.56
2022-11-23T21:56:42.632Z,97908.03
2022-11-23T21:59:10.938Z,97911.94
2022-11-23T22:01:39.600Z,97900.56
2022-11-23T22:04:10.269Z,97907.25
2022-11-23T22:06:40.577Z,97904.69
2022-11-23T22:09:10.599Z,97915.47
2022-11-23T22:11:40.997Z,97915.13
2022-11-23T22:14:11.608Z,97917.44
2022-11-23T22:16:40.725Z,97919.28
2022-11-23T22:19:11.042Z,97929.03
2022-11-23T22:21:41.576Z,97924.44
2022-11-23T22:24:12.376Z,97941.16
2022-11-23T22:26:40.386Z,97944.41
2022-11-23T22:29:08.385Z,97944.41
2022-11-23T22:31:36.699Z,97936.69
2022-11-23T22:34:06.742Z,97957.06
2022-11-23T22:36:34.443Z,97956.22
2022-11-23T22:39:06.485Z,97956.22
2022-11-23T22:41:36.827Z,97956.38
2022-11-23T22:44:06.751Z,97971.06
2022-11-23T22:46:34.725Z,97965.06
2022-11-23T22:49:03.002Z,97972.34
2022-11-23T22:51:31.059Z,97975.81
2022-11-23T22:54:03.094Z,97981.56
2022-11-23T22:56:31.711Z,97982.16
2022-11-23T22:59:00.124Z,97990.03
2022-11-23T23:01:30.590Z,97995.75
2022-11-23T23:04:00.425Z,97998.94
2022-11-23T23:06:30.201Z,97995.94
2022-11-23T23:08:59.423Z,98003.81
2022-11-23T23:11:30.669Z,98006.63
2022-11-23T23:13:58.768Z,98005.94
2022-11-23T23:16:27.540Z,98007.97
2022-11-23T23:18:56.562Z,98010.63
2022-11-23T23:21:25.375Z,98003.00
2022-11-23T23:23:55.027Z,98008.81
2022-11-23T23:26:25.086Z,98014.56
2022-11-23T23:28:56.493Z,98013.88
2022-11-23T23:31:25.631Z,98010.38
2022-11-23T23:33:54.493Z,98025.03
2022-11-23T23:36:24.355Z,98010.81
2022-11-23T23:38:52.298Z,98021.66
2022-11-23T23:41:20.183Z,98021.31
2022-11-23T23:43:48.834Z,98020.00
2022-11-23T23:46:18.604Z,98020.50
2022-11-23T23:48:46.760Z,98030.16
2022-11-23T23:51:16.240Z,98028.28
2022-11-23T23:53:44.702Z,98035.72
2022-11-23T23:56:15.307Z,98032.28
2022-11-23T23:58:43.260Z,98043.66
